METAR Data
IDs: Format: Raw Decoded Include TAF

Data at: 1318 UTC 16 Sep 2019

METAR for:KJAX (Jacksonville Intl, FL, US)
Text:KJAX 161256Z 35008KT 10SM FEW007 FEW030 BKN250 26/23 A2999 RMK AO2 SLP157 T02560228
Temperature: 25.6°C ( 78°F)
Dewpoint: 22.8°C ( 73°F) [RH = 85%]
Pressure (altimeter):29.99 inches Hg (1015.7 mb) [Sea level pressure: 1015.7 mb]
Winds:from the N (350 degrees) at 9 MPH (8 knots; 4.1 m/s)
Visibility:10 or more sm (16+ km)
Ceiling:25000 feet AGL
Clouds: few clouds at 700 feet AGL, few clouds at 3000 feet AGL, broken clouds at 25000 feet AGL

METAR for:KCRG (Jacksonville/Executi, FL, US)
Text:KCRG 161307Z 34009KT 10SM BKN008 26/24 A2999 RMK AO2 T02610239 $
Temperature: 26.1°C ( 79°F)
Dewpoint: 23.9°C ( 75°F) [RH = 88%]
Pressure (altimeter):29.99 inches Hg (1015.7 mb)
Winds:from the NNW (340 degrees) at 10 MPH (9 knots; 4.6 m/s)
Visibility:10 or more sm (16+ km)
Ceiling:800 feet AGL
Clouds: broken clouds at 800 feet AGL
QC Flag:SOME DATA ABOVE MAY BE INACCURATE!!!"$" is an indication the sensor requires maintenance.

METAR for:KNIP (Jacksonville (NAS), FL, US)
Text:KNIP 161314Z 35011KT 10SM BKN012 BKN250 27/23 A3000 RMK AO2 T02670228
Temperature: 26.7°C ( 80°F)
Dewpoint: 22.8°C ( 73°F) [RH = 79%]
Pressure (altimeter):30.00 inches Hg (1016.0 mb)
Winds:from the N (350 degrees) at 13 MPH (11 knots; 5.7 m/s)
Visibility:10 or more sm (16+ km)
Ceiling:1200 feet AGL
Clouds: broken clouds at 1200 feet AGL, broken clouds at 25000 feet AGL

METAR for:KNRB (Mayport (NS), FL, US)
Text:KNRB 161252Z 34009KT 10SM SCT010 SCT025 SCT250 27/24 A2999 RMK AO2 SLP154 T02670239 $
Temperature: 26.7°C ( 80°F)
Dewpoint: 23.9°C ( 75°F) [RH = 85%]
Pressure (altimeter):29.99 inches Hg (1015.7 mb) [Sea level pressure: 1015.4 mb]
Winds:from the NNW (340 degrees) at 10 MPH (9 knots; 4.6 m/s)
Visibility:10 or more sm (16+ km)
Ceiling:at least 12,000 feet AGL
Clouds: scattered clouds at 1000 feet AGL, scattered clouds at 2500 feet AGL, scattered clouds at 25000 feet AGL
QC Flag:SOME DATA ABOVE MAY BE INACCURATE!!!"$" is an indication the sensor requires maintenance.

METAR for:KFHB (Fernandina Beach Mun, FL, US)
Text:KFHB 161315Z AUTO 36008KT 10SM OVC008 26/24 A3000 RMK AO2 T02590240
Temperature: 25.9°C ( 79°F)
Dewpoint: 24.0°C ( 75°F) [RH = 89%]
Pressure (altimeter):30.00 inches Hg (1016.0 mb)
Winds:from the N (360 degrees) at 9 MPH (8 knots; 4.1 m/s)
Visibility:10 or more sm (16+ km)
Ceiling:800 feet AGL
Clouds: overcast cloud deck at 800 feet AGL
QC Flag:automated observation with no human augmentation

METAR for:KVQQ (Jacksonville/Cecil A, FL, US)
Text:KVQQ 161250Z 35007KT 10SM CLR 26/23 A3000
Temperature: 26.0°C ( 79°F)
Dewpoint: 23.0°C ( 73°F) [RH = 84%]
Pressure (altimeter):30.00 inches Hg (1016.0 mb)
Winds:from the N (350 degrees) at 8 MPH (7 knots; 3.6 m/s)
Visibility:10 or more sm (16+ km)
Ceiling:at least 12,000 feet AGL
Clouds:sky clear below 12,000 feet AGL